sensor_id;sensor_type;location;lat;lon;timestamp;pressure;altitude;pressure_sealevel;temperature;humidity
70027;BME280;57506;50.092;15.804;2022-08-25T00:01:27;99423.88;;;16.36;100.00
70027;BME280;57506;50.092;15.804;2022-08-25T00:03:55;99415.41;;;16.44;100.00
70027;BME280;57506;50.092;15.804;2022-08-25T00:06:20;99393.41;;;16.46;100.00
70027;BME280;57506;50.092;15.804;2022-08-25T00:08:47;99410.28;;;16.55;100.00
70027;BME280;57506;50.092;15.804;2022-08-25T00:11:18;99383.81;;;16.43;100.00
70027;BME280;57506;50.092;15.804;2022-08-25T00:13:47;99406.56;;;16.49;100.00
70027;BME280;57506;50.092;15.804;2022-08-25T00:16:16;99407.41;;;16.50;100.00
70027;BME280;57506;50.092;15.804;2022-08-25T00:18:45;99396.66;;;16.36;100.00
70027;BME280;57506;50.092;15.804;2022-08-25T00:21:13;99403.44;;;16.27;100.00
70027;BME280;57506;50.092;15.804;2022-08-25T00:23:39;99405.03;;;16.17;100.00
70027;BME280;57506;50.092;15.804;2022-08-25T00:26:05;99391.28;;;16.12;100.00
70027;BME280;57506;50.092;15.804;2022-08-25T00:28:31;99382.59;;;16.03;100.00
70027;BME280;57506;50.092;15.804;2022-08-25T00:30:57;99391.69;;;16.33;100.00
70027;BME280;57506;50.092;15.804;2022-08-25T00:33:23;99386.31;;;16.45;100.00
70027;BME280;57506;50.092;15.804;2022-08-25T00:35:51;99364.63;;;16.38;100.00
70027;BME280;57506;50.092;15.804;2022-08-25T00:38:17;99379.59;;;16.48;100.00
70027;BME280;57506;50.092;15.804;2022-08-25T00:40:43;99389.41;;;16.49;100.00
70027;BME280;57506;50.092;15.804;2022-08-25T00:43:09;99387.97;;;16.46;100.00
70027;BME280;57506;50.092;15.804;2022-08-25T00:45:34;99396.66;;;16.36;100.00
70027;BME280;57506;50.092;15.804;2022-08-25T00:48:01;99401.94;;;16.31;100.00
70027;BME280;57506;50.092;15.804;2022-08-25T00:50:29;99394.69;;;16.25;100.00
70027;BME280;57506;50.092;15.804;2022-08-25T00:53:00;99399.06;;;16.44;100.00
70027;BME280;57506;50.092;15.804;2022-08-25T00:55:30;99377.47;;;16.31;100.00
70027;BME280;57506;50.092;15.804;2022-08-25T01:00:38;99382.66;;;16.15;100.00
70027;BME280;57506;50.092;15.804;2022-08-25T01:03:06;99381.69;;;16.09;100.00
70027;BME280;57506;50.092;15.804;2022-08-25T01:05:31;99391.59;;;16.03;100.00
70027;BME280;57506;50.092;15.804;2022-08-25T01:07:58;99381.22;;;16.12;100.00
70027;BME280;57506;50.092;15.804;2022-08-25T01:10:28;99362.53;;;16.22;100.00
70027;BME280;57506;50.092;15.804;2022-08-25T01:12:59;99372.47;;;16.28;100.00
70027;BME280;57506;50.092;15.804;2022-08-25T01:15:26;99368.25;;;16.32;100.00
70027;BME280;57506;50.092;15.804;2022-08-25T01:17:54;99368.53;;;16.42;100.00
70027;BME280;57506;50.092;15.804;2022-08-25T01:20:23;99351.50;;;16.35;100.00
70027;BME280;57506;50.092;15.804;2022-08-25T01:22:50;99376.09;;;16.04;100.00
70027;BME280;57506;50.092;15.804;2022-08-25T01:28:03;99372.75;;;15.84;100.00
70027;BME280;57506;50.092;15.804;2022-08-25T01:30:29;99368.47;;;15.69;100.00
70027;BME280;57506;50.092;15.804;2022-08-25T01:32:55;99364.53;;;15.65;100.00
70027;BME280;57506;50.092;15.804;2022-08-25T01:35:20;99371.47;;;15.86;100.00
70027;BME280;57506;50.092;15.804;2022-08-25T01:37:46;99384.47;;;16.02;100.00
70027;BME280;57506;50.092;15.804;2022-08-25T01:40:13;99360.69;;;15.98;100.00
70027;BME280;57506;50.092;15.804;2022-08-25T01:42:46;99376.84;;;16.29;100.00
70027;BME280;57506;50.092;15.804;2022-08-25T01:45:16;99367.13;;;16.22;100.00
70027;BME280;57506;50.092;15.804;2022-08-25T01:47:43;99376.19;;;16.34;100.00
70027;BME280;57506;50.092;15.804;2022-08-25T01:50:09;99354.81;;;16.37;100.00
70027;BME280;57506;50.092;15.804;2022-08-25T01:52:49;99348.44;;;16.43;100.00
70027;BME280;57506;50.092;15.804;2022-08-25T01:55:16;99350.28;;;16.31;100.00
70027;BME280;57506;50.092;15.804;2022-08-25T01:57:42;99365.53;;;16.32;100.00
70027;BME280;57506;50.092;15.804;2022-08-25T02:00:09;99365.00;;;16.24;100.00
70027;BME280;57506;50.092;15.804;2022-08-25T02:02:37;99355.63;;;16.01;100.00
70027;BME280;57506;50.092;15.804;2022-08-25T02:05:04;99373.38;;;16.04;100.00
70027;BME280;57506;50.092;15.804;2022-08-25T02:07:30;99369.44;;;16.00;100.00
70027;BME280;57506;50.092;15.804;2022-08-25T02:09:57;99370.78;;;16.09;100.00
70027;BME280;57506;50.092;15.804;2022-08-25T02:12:23;99373.38;;;16.04;100.00
70027;BME280;57506;50.092;15.804;2022-08-25T02:14:49;99377.44;;;15.95;100.00
70027;BME280;57506;50.092;15.804;2022-08-25T02:17:15;99365.72;;;15.94;100.00
70027;BME280;57506;50.092;15.804;2022-08-25T02:19:41;99367.56;;;16.19;100.00
70027;BME280;57506;50.092;15.804;2022-08-25T02:22:07;99360.84;;;16.21;100.00
70027;BME280;57506;50.092;15.804;2022-08-25T02:24:32;99349.75;;;16.04;100.00
70027;BME280;57506;50.092;15.804;2022-08-25T02:26:59;99370.44;;;16.05;100.00
70027;BME280;57506;50.092;15.804;2022-08-25T02:29:24;99369.44;;;16.00;100.00
70027;BME280;57506;50.092;15.804;2022-08-25T02:31:50;99370.63;;;15.86;100.00
70027;BME280;57506;50.092;15.804;2022-08-25T02:34:16;99370.19;;;15.64;100.00
70027;BME280;57506;50.092;15.804;2022-08-25T02:36:42;99365.66;;;15.58;100.00
70027;BME280;57506;50.092;15.804;2022-08-25T02:39:08;99365.75;;;15.69;100.00
70027;BME280;57506;50.092;15.804;2022-08-25T02:41:34;99346.31;;;15.72;100.00
70027;BME280;57506;50.092;15.804;2022-08-25T02:44:01;99357.44;;;15.89;100.00
70027;BME280;57506;50.092;15.804;2022-08-25T02:46:28;99358.41;;;15.95;100.00
70027;BME280;57506;50.092;15.804;2022-08-25T02:48:55;99342.53;;;15.73;100.00
70027;BME280;57506;50.092;15.804;2022-08-25T02:51:22;99347.19;;;15.66;100.00
70027;BME280;57506;50.092;15.804;2022-08-25T02:53:49;99339.56;;;15.57;100.00
70027;BME280;57506;50.092;15.804;2022-08-25T02:56:15;99337.41;;;15.59;100.00
70027;BME280;57506;50.092;15.804;2022-08-25T02:58:42;99363.53;;;15.60;100.00
70027;BME280;57506;50.092;15.804;2022-08-25T03:01:08;99351.84;;;15.59;100.00
70027;BME280;57506;50.092;15.804;2022-08-25T03:03:39;99353.88;;;15.64;100.00
70027;BME280;57506;50.092;15.804;2022-08-25T03:06:10;99349.63;;;15.74;100.00
70027;BME280;57506;50.092;15.804;2022-08-25T03:08:37;99326.72;;;15.64;100.00
70027;BME280;57506;50.092;15.804;2022-08-25T03:11:04;99350.06;;;15.71;100.00
70027;BME280;57506;50.092;15.804;2022-08-25T03:13:30;99338.25;;;15.59;100.00
70027;BME280;57506;50.092;15.804;2022-08-25T03:15:58;99343.94;;;15.58;100.00
70027;BME280;57506;50.092;15.804;2022-08-25T03:18:23;99354.47;;;15.72;100.00
70027;BME280;57506;50.092;15.804;2022-08-25T03:20:49;99356.81;;;15.62;100.00
70027;BME280;57506;50.092;15.804;2022-08-25T03:23:14;99345.00;;;15.50;100.00
70027;BME280;57506;50.092;15.804;2022-08-25T03:25:40;99342.31;;;15.44;100.00
70027;BME280;57506;50.092;15.804;2022-08-25T03:28:24;99339.97;;;15.54;100.00
70027;BME280;57506;50.092;15.804;2022-08-25T03:30:51;99341.44;;;15.50;100.00
70027;BME280;57506;50.092;15.804;2022-08-25T03:33:17;99327.78;;;15.38;100.00
70027;BME280;57506;50.092;15.804;2022-08-25T03:35:43;99344.81;;;15.45;100.00
70027;BME280;57506;50.092;15.804;2022-08-25T03:38:09;99347.59;;;15.38;100.00
70027;BME280;57506;50.092;15.804;2022-08-25T03:40:35;99332.84;;;15.28;100.00
70027;BME280;57506;50.092;15.804;2022-08-25T03:43:02;99337.44;;;15.27;100.00
70027;BME280;57506;50.092;15.804;2022-08-25T03:45:28;99341.59;;;15.30;100.00
70027;BME280;57506;50.092;15.804;2022-08-25T03:47:54;99318.69;;;15.26;100.00
70027;BME280;57506;50.092;15.804;2022-08-25T03:50:21;99323.56;;;15.42;100.00
70027;BME280;57506;50.092;15.804;2022-08-25T03:52:55;99327.78;;;15.38;100.00
70027;BME280;57506;50.092;15.804;2022-08-25T03:55:22;99331.94;;;15.40;100.00
70027;BME280;57506;50.092;15.804;2022-08-25T03:57:49;99340.41;;;15.26;100.00
70027;BME280;57506;50.092;15.804;2022-08-25T04:00:15;99335.44;;;15.16;100.00
70027;BME280;57506;50.092;15.804;2022-08-25T04:02:41;99339.22;;;15.15;100.00
70027;BME280;57506;50.092;15.804;2022-08-25T04:05:08;99342.13;;;15.14;100.00
70027;BME280;57506;50.092;15.804;2022-08-25T04:07:34;99339.38;;;15.20;100.00
70027;BME280;57506;50.092;15.804;2022-08-25T04:09:59;99339.78;;;15.24;100.00
70027;BME280;57506;50.092;15.804;2022-08-25T04:12:25;99336.34;;;15.35;100.00
70027;BME280;57506;50.092;15.804;2022-08-25T04:14:51;99339.03;;;15.42;100.00
70027;BME280;57506;50.092;15.804;2022-08-25T04:17:17;99325.38;;;15.48;100.00
70027;BME280;57506;50.092;15.804;2022-08-25T04:19:42;99332.56;;;15.67;100.00
70027;BME280;57506;50.092;15.804;2022-08-25T04:22:08;99343.59;;;15.72;100.00
70027;BME280;57506;50.092;15.804;2022-08-25T04:24:34;99333.78;;;15.71;100.00
70027;BME280;57506;50.092;15.804;2022-08-25T04:26:59;99335.78;;;15.76;100.00
70027;BME280;57506;50.092;15.804;2022-08-25T04:29:25;99344.34;;;15.80;100.00
70027;BME280;57506;50.092;15.804;2022-08-25T04:31:53;99336.34;;;15.85;100.00
70027;BME280;57506;50.092;15.804;2022-08-25T04:34:21;99324.25;;;15.81;100.00
70027;BME280;57506;50.092;15.804;2022-08-25T04:36:47;99322.31;;;15.88;100.00
70027;BME280;57506;50.092;15.804;2022-08-25T04:39:14;99328.38;;;15.90;100.00
70027;BME280;57506;50.092;15.804;2022-08-25T04:41:40;99334.94;;;16.00;100.00
70027;BME280;57506;50.092;15.804;2022-08-25T04:44:06;99315.34;;;15.92;100.00
70027;BME280;57506;50.092;15.804;2022-08-25T04:46:33;99339.94;;;16.03;100.00
70027;BME280;57506;50.092;15.804;2022-08-25T04:49:00;99343.25;;;16.05;100.00
70027;BME280;57506;50.092;15.804;2022-08-25T04:51:31;99347.94;;;16.17;100.00
70027;BME280;57506;50.092;15.804;2022-08-25T04:53:59;99332.59;;;16.04;100.00
70027;BME280;57506;50.092;15.804;2022-08-25T04:56:26;99344.06;;;16.24;100.00
70027;BME280;57506;50.092;15.804;2022-08-25T04:58:53;99320.81;;;16.10;100.00
70027;BME280;57506;50.092;15.804;2022-08-25T05:01:21;99341.13;;;16.26;100.00
70027;BME280;57506;50.092;15.804;2022-08-25T05:03:53;99323.63;;;16.22;100.00
70027;BME280;57506;50.092;15.804;2022-08-25T05:06:19;99330.78;;;16.34;100.00
70027;BME280;57506;50.092;15.804;2022-08-25T05:08:45;99330.69;;;16.41;100.00
70027;BME280;57506;50.092;15.804;2022-08-25T05:11:12;99321.25;;;16.43;100.00
70027;BME280;57506;50.092;15.804;2022-08-25T05:13:39;99342.84;;;16.57;100.00
70027;BME280;57506;50.092;15.804;2022-08-25T05:16:05;99320.34;;;16.50;100.00
70027;BME280;57506;50.092;15.804;2022-08-25T05:18:32;99327.72;;;16.61;100.00
70027;BME280;57506;50.092;15.804;2022-08-25T05:21:04;99340.50;;;16.78;100.00
70027;BME280;57506;50.092;15.804;2022-08-25T05:23:29;99342.06;;;16.86;100.00
70027;BME280;57506;50.092;15.804;2022-08-25T05:26:04;99345.75;;;16.92;100.00
70027;BME280;57506;50.092;15.804;2022-08-25T05:28:30;99333.56;;;16.94;100.00
70027;BME280;57506;50.092;15.804;2022-08-25T05:30:58;99335.59;;;16.99;100.00
70027;BME280;57506;50.092;15.804;2022-08-25T05:33:24;99346.91;;;17.14;100.00
70027;BME280;57506;50.092;15.804;2022-08-25T05:35:50;99335.44;;;17.24;100.00
70027;BME280;57506;50.092;15.804;2022-08-25T05:38:16;99346.47;;;17.29;100.00
70027;BME280;57506;50.092;15.804;2022-08-25T05:40:42;99362.13;;;17.45;100.00
70027;BME280;57506;50.092;15.804;2022-08-25T05:43:07;99347.81;;;17.61;100.00
70027;BME280;57506;50.092;15.804;2022-08-25T05:45:33;99354.25;;;17.67;100.00
70027;BME280;57506;50.092;15.804;2022-08-25T05:47:59;99346.41;;;17.70;100.00
70027;BME280;57506;50.092;15.804;2022-08-25T05:50:25;99364.91;;;17.92;100.00
70027;BME280;57506;50.092;15.804;2022-08-25T05:52:51;99368.84;;;17.96;100.00
70027;BME280;57506;50.092;15.804;2022-08-25T05:55:17;99368.94;;;18.12;100.00
70027;BME280;57506;50.092;15.804;2022-08-25T05:57:43;99359.81;;;18.07;100.00
70027;BME280;57506;50.092;15.804;2022-08-25T06:00:09;99367.75;;;18.32;100.00
70027;BME280;57506;50.092;15.804;2022-08-25T06:02:37;99377.69;;;18.38;100.00
70027;BME280;57506;50.092;15.804;2022-08-25T06:05:17;99372.59;;;18.41;100.00
70027;BME280;57506;50.092;15.804;2022-08-25T06:07:45;99367.19;;;18.18;100.00
70027;BME280;57506;50.092;15.804;2022-08-25T06:10:12;99389.69;;;18.25;100.00
70027;BME280;57506;50.092;15.804;2022-08-25T06:12:40;99378.03;;;18.41;100.00
70027;BME280;57506;50.092;15.804;2022-08-25T06:15:09;99380.25;;;18.56;100.00
70027;BME280;57506;50.092;15.804;2022-08-25T06:17:35;99367.59;;;18.62;100.00
70027;BME280;57506;50.092;15.804;2022-08-25T06:20:06;99319.66;;;18.42;100.00
70027;BME280;57506;50.092;15.804;2022-08-25T06:22:33;99339.31;;;18.68;100.00
70027;BME280;57506;50.092;15.804;2022-08-25T06:24:58;99356.03;;;18.83;100.00
70027;BME280;57506;50.092;15.804;2022-08-25T06:27:24;99359.75;;;18.94;100.00
70027;BME280;57506;50.092;15.804;2022-08-25T06:29:49;99354.53;;;18.92;100.00
70027;BME280;57506;50.092;15.804;2022-08-25T06:32:15;99368.50;;;19.07;100.00
70027;BME280;57506;50.092;15.804;2022-08-25T06:34:41;99368.59;;;19.12;100.00
70027;BME280;57506;50.092;15.804;2022-08-25T06:37:06;99366.63;;;19.25;100.00
70027;BME280;57506;50.092;15.804;2022-08-25T06:39:32;99357.50;;;19.36;100.00
70027;BME280;57506;50.092;15.804;2022-08-25T06:41:58;99348.94;;;19.44;100.00
70027;BME280;57506;50.092;15.804;2022-08-25T06:44:24;99362.97;;;19.64;100.00
70027;BME280;57506;50.092;15.804;2022-08-25T06:46:51;99367.84;;;19.79;100.00
70027;BME280;57506;50.092;15.804;2022-08-25T06:49:17;99357.75;;;19.79;100.00
70027;BME280;57506;50.092;15.804;2022-08-25T06:51:43;99363.38;;;19.89;100.00
70027;BME280;57506;50.092;15.804;2022-08-25T06:54:09;99364.16;;;20.07;100.00
70027;BME280;57506;50.092;15.804;2022-08-25T06:56:35;99353.22;;;20.07;100.00
70027;BME280;57506;50.092;15.804;2022-08-25T06:59:03;99350.25;;;20.30;100.00
70027;BME280;57506;50.092;15.804;2022-08-25T07:01:30;99366.63;;;20.42;100.00
70027;BME280;57506;50.092;15.804;2022-08-25T07:03:57;99364.41;;;20.60;100.00
70027;BME280;57506;50.092;15.804;2022-08-25T07:06:27;99358.19;;;20.70;100.00
70027;BME280;57506;50.092;15.804;2022-08-25T07:08:53;99366.78;;;20.79;100.00
70027;BME280;57506;50.092;15.804;2022-08-25T07:11:19;99362.66;;;20.76;100.00
70027;BME280;57506;50.092;15.804;2022-08-25T07:13:46;99368.31;;;20.91;100.00
70027;BME280;57506;50.092;15.804;2022-08-25T07:16:12;99357.63;;;20.90;100.00
70027;BME280;57506;50.092;15.804;2022-08-25T07:18:39;99361.22;;;20.95;100.00
70027;BME280;57506;50.092;15.804;2022-08-25T07:21:05;99367.84;;;21.00;100.00
70027;BME280;57506;50.092;15.804;2022-08-25T07:23:31;99361.03;;;21.02;100.00
70027;BME280;57506;50.092;15.804;2022-08-25T07:28:37;99379.91;;;21.20;100.00
70027;BME280;57506;50.092;15.804;2022-08-25T07:31:04;99359.88;;;21.20;100.00
70027;BME280;57506;50.092;15.804;2022-08-25T07:33:29;99352.22;;;21.22;100.00
70027;BME280;57506;50.092;15.804;2022-08-25T07:35:55;99365.50;;;21.35;100.00
70027;BME280;57506;50.092;15.804;2022-08-25T07:38:22;99351.53;;;21.37;100.00
70027;BME280;57506;50.092;15.804;2022-08-25T07:40:47;99364.06;;;21.59;100.00
70027;BME280;57506;50.092;15.804;2022-08-25T07:43:20;99357.22;;;21.62;100.00
70027;BME280;57506;50.092;15.804;2022-08-25T07:45:46;99368.59;;;21.76;100.00
70027;BME280;57506;50.092;15.804;2022-08-25T07:48:13;99365.88;;;21.81;100.00
70027;BME280;57506;50.092;15.804;2022-08-25T07:50:42;99356.84;;;21.80;100.00
70027;BME280;57506;50.092;15.804;2022-08-25T07:53:11;99360.63;;;22.06;100.00
70027;BME280;57506;50.092;15.804;2022-08-25T07:55:37;99354.88;;;22.08;100.00
70027;BME280;57506;50.092;15.804;2022-08-25T07:58:06;99342.81;;;22.14;100.00
70027;BME280;57506;50.092;15.804;2022-08-25T08:00:33;99364.88;;;22.24;100.00
70027;BME280;57506;50.092;15.804;2022-08-25T08:03:03;99347.31;;;22.30;100.00
70027;BME280;57506;50.092;15.804;2022-08-25T08:05:30;99347.69;;;22.49;100.00
70027;BME280;57506;50.092;15.804;2022-08-25T08:07:56;99346.59;;;22.50;100.00
70027;BME280;57506;50.092;15.804;2022-08-25T08:10:22;99352.66;;;22.52;100.00
70027;BME280;57506;50.092;15.804;2022-08-25T08:12:50;99355.50;;;22.77;100.00
70027;BME280;57506;50.092;15.804;2022-08-25T08:15:16;99346.66;;;22.75;100.00
70027;BME280;57506;50.092;15.804;2022-08-25T08:17:42;99348.09;;;22.78;100.00
70027;BME280;57506;50.092;15.804;2022-08-25T08:20:09;99342.84;;;22.76;100.00
70027;BME280;57506;50.092;15.804;2022-08-25T08:22:37;99348.38;;;22.81;100.00
70027;BME280;57506;50.092;15.804;2022-08-25T08:25:03;99336.06;;;22.94;100.00
70027;BME280;57506;50.092;15.804;2022-08-25T08:27:29;99339.91;;;22.93;100.00
70027;BME280;57506;50.092;15.804;2022-08-25T08:29:56;99336.34;;;23.08;100.00
70027;BME280;57506;50.092;15.804;2022-08-25T08:32:21;99336.97;;;23.35;100.00
70027;BME280;57506;50.092;15.804;2022-08-25T08:34:47;99336.16;;;23.65;100.00
70027;BME280;57506;50.092;15.804;2022-08-25T08:37:14;99343.31;;;23.81;100.00
70027;BME280;57506;50.092;15.804;2022-08-25T08:39:40;99325.16;;;23.55;100.00
70027;BME280;57506;50.092;15.804;2022-08-25T08:50:33;99336.09;;;24.11;100.00
70027;BME280;57506;50.092;15.804;2022-08-25T08:53:22;99335.28;;;24.25;99.02
70027;BME280;57506;50.092;15.804;2022-08-25T08:55:54;99316.00;;;24.05;100.00
70027;BME280;57506;50.092;15.804;2022-08-25T08:58:53;99322.31;;;24.31;100.00
70027;BME280;57506;50.092;15.804;2022-08-25T09:01:31;99328.38;;;24.33;97.80
70027;BME280;57506;50.092;15.804;2022-08-25T09:06:48;99312.63;;;24.49;100.00
70027;BME280;57506;50.092;15.804;2022-08-25T09:09:40;99328.31;;;24.48;97.98
70027;BME280;57506;50.092;15.804;2022-08-25T09:15:03;99325.34;;;24.24;96.33
70027;BME280;57506;50.092;15.804;2022-08-25T09:17:53;99325.81;;;24.52;98.26
70027;BME280;57506;50.092;15.804;2022-08-25T09:26:44;99314.34;;;24.94;94.51
70027;BME280;57506;50.092;15.804;2022-08-25T09:29:15;99293.94;;;24.95;93.31
70027;BME280;57506;50.092;15.804;2022-08-25T09:31:44;99298.88;;;24.93;91.01
70027;BME280;57506;50.092;15.804;2022-08-25T09:34:18;99305.72;;;25.05;92.51
70027;BME280;57506;50.092;15.804;2022-08-25T09:36:44;99293.28;;;25.08;91.94
70027;BME280;57506;50.092;15.804;2022-08-25T09:39:13;99300.84;;;25.31;89.62
70027;BME280;57506;50.092;15.804;2022-08-25T09:44:58;99294.53;;;25.65;90.36
70027;BME280;57506;50.092;15.804;2022-08-25T09:49:48;99284.53;;;25.69;90.95
70027;BME280;57506;50.092;15.804;2022-08-25T09:54:55;99288.72;;;25.95;89.47
70027;BME280;57506;50.092;15.804;2022-08-25T09:57:36;99286.28;;;25.89;86.13
70027;BME280;57506;50.092;15.804;2022-08-25T10:02:44;99268.38;;;26.10;89.07
70027;BME280;57506;50.092;15.804;2022-08-25T10:05:21;99271.84;;;26.21;87.91
70027;BME280;57506;50.092;15.804;2022-08-25T10:07:52;99261.22;;;26.33;84.96
70027;BME280;57506;50.092;15.804;2022-08-25T10:10:42;99252.09;;;26.32;84.61
70027;BME280;57506;50.092;15.804;2022-08-25T10:13:15;99243.31;;;26.49;80.72
70027;BME280;57506;50.092;15.804;2022-08-25T10:15:42;99251.28;;;26.32;79.26
70027;BME280;57506;50.092;15.804;2022-08-25T10:20:39;99233.41;;;26.24;79.74
70027;BME280;57506;50.092;15.804;2022-08-25T10:23:13;99240.91;;;26.19;80.96
70027;BME280;57506;50.092;15.804;2022-08-25T10:25:43;99236.22;;;26.19;80.00
70027;BME280;57506;50.092;15.804;2022-08-25T10:28:31;99226.06;;;26.38;80.58
70027;BME280;57506;50.092;15.804;2022-08-25T10:31:56;99227.78;;;26.91;82.71
70027;BME280;57506;50.092;15.804;2022-08-25T10:37:10;99228.53;;;27.15;80.42
70027;BME280;57506;50.092;15.804;2022-08-25T10:40:26;99226.31;;;27.31;81.20
70027;BME280;57506;50.092;15.804;2022-08-25T10:42:38;99222.59;;;27.54;78.88
70027;BME280;57506;50.092;15.804;2022-08-25T10:45:21;99211.38;;;27.78;76.40
70027;BME280;57506;50.092;15.804;2022-08-25T10:59:55;99208.09;;;28.44;71.21
70027;BME280;57506;50.092;15.804;2022-08-25T11:02:27;99203.47;;;28.53;74.41
70027;BME280;57506;50.092;15.804;2022-08-25T11:08:02;99193.34;;;28.85;72.92
70027;BME280;57506;50.092;15.804;2022-08-25T11:10:53;99195.53;;;28.97;73.77
70027;BME280;57506;50.092;15.804;2022-08-25T11:13:30;99189.94;;;28.88;71.84
70027;BME280;57506;50.092;15.804;2022-08-25T11:16:08;99196.16;;;28.94;72.16
70027;BME280;57506;50.092;15.804;2022-08-25T11:18:41;99172.09;;;28.67;73.74
70027;BME280;57506;50.092;15.804;2022-08-25T11:21:12;99179.66;;;28.75;76.10
70027;BME280;57506;50.092;15.804;2022-08-25T11:23:46;99173.22;;;28.79;74.98
70027;BME280;57506;50.092;15.804;2022-08-25T11:26:19;99180.66;;;28.93;71.67
70027;BME280;57506;50.092;15.804;2022-08-25T11:29:15;99176.50;;;28.81;71.65
70027;BME280;57506;50.092;15.804;2022-08-25T11:31:44;99173.97;;;28.58;71.79
70027;BME280;57506;50.092;15.804;2022-08-25T11:34:11;99184.72;;;28.73;72.53
70027;BME280;57506;50.092;15.804;2022-08-25T11:36:49;99180.69;;;28.43;72.03
70027;BME280;57506;50.092;15.804;2022-08-25T11:39:21;99177.19;;;28.51;74.30
70027;BME280;57506;50.092;15.804;2022-08-25T11:44:47;99165.94;;;28.34;75.75
70027;BME280;57506;50.092;15.804;2022-08-25T11:55:31;99158.63;;;28.10;72.21
70027;BME280;57506;50.092;15.804;2022-08-25T12:00:53;99145.63;;;27.97;72.89
70027;BME280;57506;50.092;15.804;2022-08-25T12:06:27;99148.44;;;28.47;73.17
70027;BME280;57506;50.092;15.804;2022-08-25T12:09:14;99143.88;;;28.15;63.82
70027;BME280;57506;50.092;15.804;2022-08-25T12:14:36;99138.63;;;28.41;68.42
70027;BME280;57506;50.092;15.804;2022-08-25T12:17:21;99138.41;;;28.73;71.76
70027;BME280;57506;50.092;15.804;2022-08-25T12:19:54;99120.81;;;29.00;72.64
70027;BME280;57506;50.092;15.804;2022-08-25T12:25:43;99123.50;;;29.14;65.85
70027;BME280;57506;50.092;15.804;2022-08-25T12:36:00;99117.75;;;29.72;64.55
70027;BME280;57506;50.092;15.804;2022-08-25T12:38:30;99109.47;;;29.89;60.52
70027;BME280;57506;50.092;15.804;2022-08-25T12:41:09;99120.41;;;29.77;60.44
70027;BME280;57506;50.092;15.804;2022-08-25T12:43:39;99122.84;;;29.70;59.84
70027;BME280;57506;50.092;15.804;2022-08-25T12:51:53;99143.13;;;28.73;66.02
70027;BME280;57506;50.092;15.804;2022-08-25T12:57:06;99149.75;;;27.86;70.59
70027;BME280;57506;50.092;15.804;2022-08-25T12:59:41;99141.19;;;27.41;73.17
70027;BME280;57506;50.092;15.804;2022-08-25T13:11:16;99162.09;;;26.26;84.25
70027;BME280;57506;50.092;15.804;2022-08-25T13:14:03;99165.28;;;25.43;97.86
70027;BME280;57506;50.092;15.804;2022-08-25T13:16:32;99162.19;;;25.21;96.74
70027;BME280;57506;50.092;15.804;2022-08-25T13:19:03;99150.28;;;25.25;95.26
70027;BME280;57506;50.092;15.804;2022-08-25T13:21:34;99150.47;;;25.34;96.64
70027;BME280;57506;50.092;15.804;2022-08-25T13:24:25;99148.47;;;25.39;97.79
70027;BME280;57506;50.092;15.804;2022-08-25T13:26:57;99119.25;;;25.38;100.00
70027;BME280;57506;50.092;15.804;2022-08-25T13:29:26;99128.63;;;25.37;94.80
70027;BME280;57506;50.092;15.804;2022-08-25T13:34:29;99116.25;;;25.64;92.12
70027;BME280;57506;50.092;15.804;2022-08-25T13:42:50;99103.97;;;25.94;89.19
70027;BME280;57506;50.092;15.804;2022-08-25T13:45:27;99085.44;;;25.75;82.70
70027;BME280;57506;50.092;15.804;2022-08-25T13:47:54;99092.22;;;25.35;84.85
70027;BME280;57506;50.092;15.804;2022-08-25T13:58:19;99108.59;;;25.98;87.07
70027;BME280;57506;50.092;15.804;2022-08-25T14:01:00;99099.16;;;26.23;86.90
70027;BME280;57506;50.092;15.804;2022-08-25T14:03:34;99092.09;;;26.68;84.83
70027;BME280;57506;50.092;15.804;2022-08-25T14:06:24;99096.66;;;27.10;83.87
70027;BME280;57506;50.092;15.804;2022-08-25T14:11:42;99101.72;;;27.77;83.68
70027;BME280;57506;50.092;15.804;2022-08-25T14:14:11;99079.28;;;27.65;81.82
70027;BME280;57506;50.092;15.804;2022-08-25T14:16:49;99083.19;;;27.64;82.60
70027;BME280;57506;50.092;15.804;2022-08-25T14:19:20;99088.41;;;27.38;84.57
70027;BME280;57506;50.092;15.804;2022-08-25T14:21:48;99072.41;;;27.48;86.17
70027;BME280;57506;50.092;15.804;2022-08-25T14:24:20;99074.56;;;27.51;84.00
70027;BME280;57506;50.092;15.804;2022-08-25T14:26:47;99085.63;;;27.38;83.29
70027;BME280;57506;50.092;15.804;2022-08-25T14:29:13;99079.13;;;27.15;72.54
70027;BME280;57506;50.092;15.804;2022-08-25T14:31:41;99078.22;;;27.33;70.72
70027;BME280;57506;50.092;15.804;2022-08-25T14:34:17;99070.16;;;27.37;76.16
70027;BME280;57506;50.092;15.804;2022-08-25T14:36:44;99086.75;;;27.50;73.13
70027;BME280;57506;50.092;15.804;2022-08-25T14:39:11;99077.25;;;27.57;75.87
70027;BME280;57506;50.092;15.804;2022-08-25T14:41:39;99076.06;;;27.99;73.87
70027;BME280;57506;50.092;15.804;2022-08-25T14:44:06;99061.91;;;28.00;74.58
70027;BME280;57506;50.092;15.804;2022-08-25T14:46:35;99069.25;;;28.18;70.43
70027;BME280;57506;50.092;15.804;2022-08-25T14:49:05;99074.56;;;28.29;67.98
70027;BME280;57506;50.092;15.804;2022-08-25T14:51:32;99063.31;;;28.11;66.86
70027;BME280;57506;50.092;15.804;2022-08-25T14:54:03;99055.94;;;28.07;71.93
70027;BME280;57506;50.092;15.804;2022-08-25T14:56:30;99068.72;;;27.67;68.78
70027;BME280;57506;50.092;15.804;2022-08-25T14:58:56;99063.88;;;27.31;73.26
70027;BME280;57506;50.092;15.804;2022-08-25T15:01:23;99050.47;;;27.11;72.08